Current Weather Conditions: station NFBF1

sailwx.info

Wind from 240 at 4 knots gusting 6

Air temperature 28.4° C

Last reported at 2014-Aug-20 21:54 UTC.
Time now 2014-Aug-21 00:26 UTC

Location: N 25°05' W 081°05'.
View on Google Maps.

See reports from other nearby stations

  
Tides and Currents Weather Stations Pressure Air Temp Water Temp Dewpoint Dewpoint Depression Visibility Wind Speed Wind Dir Waves Ship Positions
date/time (UTC)wind fromknots sea level pressurealtimeterstation pressurevisibilityair tempwater tempwave heightnotes
2014-Aug-20 21:54 240 4 gusting 6 28.4
2014-Aug-20 21:48 28.2
2014-Aug-20 21:42 28.2
2014-Aug-20 21:36 27.7
2014-Aug-20 21:30 220 2 gusting 3 27.4
2014-Aug-20 21:24 200 3 gusting 4 26.8
2014-Aug-20 21:18 180 4 gusting 5 26.4
2014-Aug-20 21:12 140 6 gusting 8 26.1
2014-Aug-20 21:06 140 9 gusting 12 25.9
2014-Aug-20 21:00 130 10 gusting 13 25.8
2014-Aug-20 20:54 140 11 gusting 15 26.0
2014-Aug-20 20:48 130 15 gusting 18 26.3
2014-Aug-20 19:54 040 5 gusting 7 31.0
2014-Aug-20 19:48 080 2 gusting 8 31.8
2014-Aug-20 19:42 150 3 gusting 4 31.8
2014-Aug-20 19:36 170 3 gusting 4 31.9
2014-Aug-20 19:30 150 2 gusting 4 32.2
2014-Aug-20 19:24 150 1 gusting 3 31.8
2014-Aug-20 19:18 210 2 gusting 3 31.7
2014-Aug-20 19:12 190 2 gusting 4 31.7
2014-Aug-20 19:06 200 3 gusting 4 31.5
2014-Aug-20 19:00 210 4 gusting 5 31.4
2014-Aug-20 18:54 230 4 gusting 6 31.5
2014-Aug-20 18:48 250 2 gusting 4 31.6
2014-Aug-20 17:54 220 1 gusting 4 31.5
2014-Aug-20 17:48 180 4 gusting 5 31.3
2014-Aug-20 17:42 200 2 gusting 4 31.4
2014-Aug-20 17:36 190 2 gusting 4 31.6
2014-Aug-20 17:30 160 2 gusting 3 31.5
2014-Aug-20 17:24 180 3 gusting 4 31.4
2014-Aug-20 17:18 180 2 gusting 3 31.7
2014-Aug-20 17:12 200 1 gusting 4 31.5
2014-Aug-20 17:06 200 1 gusting 3 31.5
2014-Aug-20 17:00 200 2 gusting 4 31.4
2014-Aug-20 16:54 160 2 gusting 4 31.6
2014-Aug-20 16:48 130 2 gusting 4 31.6
2014-Aug-20 15:54 32.0
2014-Aug-20 15:48 080 1 gusting 3 31.5
2014-Aug-20 14:54 030 3 gusting 5 31.1
2014-Aug-20 14:48 010 2 gusting 4 31.1
2014-Aug-20 13:54 040 5 gusting 5 30.9
2014-Aug-20 13:48 050 4 gusting 6 30.9
2014-Aug-20 12:54 050 5 gusting 6 30.9
2014-Aug-20 12:48 060 4 gusting 5 30.9
2014-Aug-20 11:54 050 4 gusting 5 30.3
2014-Aug-20 11:48 060 4 gusting 5 30.0
2014-Aug-20 10:54 030 5 gusting 5 29.9
2014-Aug-20 10:48 030 4 gusting 5 29.8
2014-Aug-20 10:42 040 4 gusting 5 29.8
2014-Aug-20 10:36 040 4 gusting 5 29.8
2014-Aug-20 10:30 040 4 gusting 5 29.7
2014-Aug-20 10:24 040 5 gusting 6 29.8
2014-Aug-20 10:18 040 5 gusting 6 29.9
2014-Aug-20 10:12 040 5 gusting 5 29.9
2014-Aug-20 10:06 040 4 gusting 5 29.8
2014-Aug-20 10:00 030 5 gusting 6 29.8
2014-Aug-20 09:54 030 4 gusting 5 29.8
2014-Aug-20 09:48 040 3 gusting 4 29.8
2014-Aug-20 09:42 060 2 gusting 4 29.8
2014-Aug-20 09:36 070 2 gusting 3 29.8
2014-Aug-20 09:30 050 2 gusting 3 29.8
2014-Aug-20 09:24 060 2 gusting 3 29.8
2014-Aug-20 09:18 040 3 gusting 4 29.8
2014-Aug-20 09:12 030 3 gusting 4 29.8
2014-Aug-20 09:06 020 3 gusting 4 29.8
2014-Aug-20 09:00 040 3 gusting 4 29.9
2014-Aug-20 08:54 030 3 gusting 4 29.9
2014-Aug-20 08:48 040 3 gusting 5 29.9
2014-Aug-20 07:54 040 2 gusting 3 29.9
2014-Aug-20 07:48 040 1 gusting 3 30.1
2014-Aug-20 07:42 30.1
2014-Aug-20 07:36 30.0
2014-Aug-20 07:30 280 1 gusting 2 29.9
2014-Aug-20 07:24 290 2 gusting 2 29.9
2014-Aug-20 07:18 330 1 gusting 2 29.8
2014-Aug-20 07:12 330 1 gusting 2 29.7
2014-Aug-20 07:06 320 2 gusting 2 29.5
2014-Aug-20 07:00 350 2 gusting 2 29.3
2014-Aug-20 06:54 350 3 gusting 4 29.0
2014-Aug-20 06:48 340 4 gusting 5 28.7
2014-Aug-20 05:54 070 7 gusting 12 26.8
2014-Aug-20 05:48 020 15 gusting 20 27.0
2014-Aug-20 04:54 200 5 gusting 7 31.0
2014-Aug-20 04:48 200 4 gusting 6 30.9
2014-Aug-20 03:54 190 6 gusting 7 30.9
2014-Aug-20 03:48 220 6 gusting 7 30.9
2014-Aug-20 03:42 200 5 gusting 7 30.9
2014-Aug-20 03:36 210 5 gusting 7 31.0
2014-Aug-20 03:30 210 5 gusting 6 30.9
2014-Aug-20 03:24 230 4 gusting 6 30.9
2014-Aug-20 03:18 230 5 gusting 5 30.9
2014-Aug-20 03:12 220 4 gusting 5 30.9
2014-Aug-20 03:06 230 4 gusting 6 30.9
2014-Aug-20 03:00 220 3 gusting 5 30.9
2014-Aug-20 02:54 210 3 gusting 4 31.0
2014-Aug-20 02:48 210 4 gusting 6 31.0
2014-Aug-20 02:42 240 4 gusting 5 31.0
2014-Aug-20 02:36 230 4 gusting 5 31.0
2014-Aug-20 02:30 230 2 gusting 4 31.0
2014-Aug-20 02:24 250 3 gusting 4 31.0
2014-Aug-20 02:18 260 2 gusting 3 31.0
2014-Aug-20 02:12 260 2 gusting 3 31.0
2014-Aug-20 02:06 280 2 gusting 3 31.0
2014-Aug-20 02:00 290 2 gusting 4 30.9
2014-Aug-20 01:54 280 2 gusting 4 30.9
2014-Aug-20 01:48 280 3 gusting 4 30.9
2014-Aug-20 00:54 230 4 gusting 6 31.0
2014-Aug-20 00:48 220 4 gusting 6 31.0
2014-Aug-20 00:42 210 4 gusting 5 31.0
2014-Aug-20 00:36 220 4 gusting 6 31.0
2014-Aug-20 00:30 220 5 gusting 7 30.9
2014-Aug-20 00:24 200 5 gusting 7 31.0
2014-Aug-20 00:18 210 5 gusting 6 31.0
2014-Aug-20 00:12 220 6 gusting 7 31.1
2014-Aug-20 00:06 220 5 gusting 6 31.1
2014-Aug-20 00:00 210 4 gusting 6 31.1
2014-Aug-19 22:54 210 6 gusting 8 31.5
2014-Aug-19 22:48 230 6 gusting 8 31.5
2014-Aug-19 21:54 220 6 gusting 7 31.5
2014-Aug-19 21:48 200 6 gusting 8 31.4
2014-Aug-19 21:42 200 6 gusting 7 31.4
2014-Aug-19 21:36 210 7 gusting 9 31.4
2014-Aug-19 21:30 220 7 gusting 9 31.3
2014-Aug-19 21:24 200 6 gusting 8 31.4
2014-Aug-19 21:18 210 7 gusting 9 31.5
2014-Aug-19 21:12 210 7 gusting 8 31.5
2014-Aug-19 21:06 210 7 gusting 8 31.5
2014-Aug-19 21:00 210 6 gusting 8 31.5
2014-Aug-19 20:54 210 7 gusting 8 31.4
2014-Aug-19 20:48 230 6 gusting 8 31.4
2014-Aug-19 19:54 230 4 gusting 6 31.4
2014-Aug-19 19:48 230 4 gusting 5 31.4
2014-Aug-19 18:54 31.8
2014-Aug-19 18:48 270 1 gusting 2 31.7
2014-Aug-19 18:42 32.0
2014-Aug-19 18:36 31.8
2014-Aug-19 18:30 290 2 gusting 4 31.3
2014-Aug-19 18:24 31.9
2014-Aug-19 18:18 31.9
2014-Aug-19 18:12 31.8
2014-Aug-19 18:06 31.7
2014-Aug-19 18:00 31.4
2014-Aug-19 17:54 240 2 gusting 3 31.2
2014-Aug-19 17:48 190 3 gusting 4 31.2
2014-Aug-19 16:54 210 2 gusting 3 31.1
2014-Aug-19 16:48 200 2 gusting 4 31.1
2014-Aug-19 15:54 180 3 gusting 4 31.1
2014-Aug-19 15:48 170 2 gusting 4 31.1
2014-Aug-19 14:54 160 3 gusting 4 30.8
2014-Aug-19 14:48 160 5 gusting 6 30.8
2014-Aug-19 14:42 170 3 gusting 5 30.7
2014-Aug-19 14:36 180 4 gusting 5 30.6
2014-Aug-19 14:30 160 4 gusting 5 30.7
2014-Aug-19 14:24 160 2 gusting 4 30.8
2014-Aug-19 14:18 160 2 gusting 4 30.7
2014-Aug-19 14:12 150 5 gusting 7 30.6
2014-Aug-19 14:06 170 5 gusting 6 30.6
2014-Aug-19 14:00 160 5 gusting 7 30.6
2014-Aug-19 13:54 160 5 gusting 7 30.7
2014-Aug-19 13:48 170 5 gusting 8 30.7
2014-Aug-19 12:54 170 3 gusting 4 30.6
2014-Aug-19 12:48 170 3 gusting 4 30.7
2014-Aug-19 12:42 160 2 gusting 4 30.9
2014-Aug-19 12:36 150 2 gusting 4 30.7
2014-Aug-19 12:30 140 2 gusting 3 30.7
2014-Aug-19 12:24 160 2 gusting 4 30.7
2014-Aug-19 12:18 160 1 gusting 3 30.7
2014-Aug-19 12:12 140 2 gusting 3 30.7
2014-Aug-19 12:06 150 2 gusting 3 30.6
2014-Aug-19 12:00 150 1 gusting 2 30.6
2014-Aug-19 11:54 140 1 gusting 2 30.5
2014-Aug-19 11:48 130 2 gusting 3 30.3
2014-Aug-19 10:54 120 2 gusting 4 29.7
2014-Aug-19 10:48 120 2 gusting 3 29.7
2014-Aug-19 09:54 160 5 gusting 6 29.6
2014-Aug-19 09:48 160 5 gusting 8 29.7
2014-Aug-19 08:54 160 6 gusting 7 29.9
2014-Aug-19 08:48 160 6 gusting 8 30.0
2014-Aug-19 07:54 140 7 gusting 10 30.4
2014-Aug-19 07:48 150 6 gusting 8 30.4
2014-Aug-19 07:42 140 6 gusting 7 30.4
2014-Aug-19 07:36 150 8 gusting 10 30.4
2014-Aug-19 07:30 150 9 gusting 11 30.3
2014-Aug-19 07:24 140 9 gusting 11 30.4
2014-Aug-19 07:18 150 8 gusting 10 30.4
2014-Aug-19 07:12 170 8 gusting 11 30.4
2014-Aug-19 07:06 140 9 gusting 10 30.5
2014-Aug-19 07:00 150 9 gusting 13 30.5
2014-Aug-19 06:54 150 10 gusting 12 30.6
2014-Aug-19 06:48 150 11 gusting 14 30.7
2014-Aug-19 06:42 140 11 gusting 13 30.7
2014-Aug-19 06:36 150 12 gusting 14 30.8
2014-Aug-19 06:30 160 13 gusting 16 30.7
2014-Aug-19 06:24 160 12 gusting 15 30.7
2014-Aug-19 06:18 150 13 gusting 15 30.8
2014-Aug-19 06:12 160 12 gusting 14 30.7
2014-Aug-19 06:06 170 11 gusting 13 30.7
2014-Aug-19 06:00 170 10 gusting 12 30.7
2014-Aug-19 05:54 170 9 gusting 12 30.7
2014-Aug-19 05:48 160 8 gusting 11 30.6
2014-Aug-19 04:54 140 8 gusting 10 30.8
2014-Aug-19 04:48 120 8 gusting 12 30.6
2014-Aug-19 04:42 120 6 gusting 8 30.4
2014-Aug-19 04:36 110 7 gusting 9 30.3
2014-Aug-19 04:30 100 6 gusting 7 30.2
2014-Aug-19 04:24 110 6 gusting 9 30.3
2014-Aug-19 04:18 100 6 gusting 8 30.3
2014-Aug-19 04:12 100 5 gusting 7 30.3
2014-Aug-19 04:06 100 6 gusting 7 30.2
2014-Aug-19 04:00 090 5 gusting 7 30.2
2014-Aug-19 02:54 040 6 gusting 8 29.8
2014-Aug-19 02:48 040 7 gusting 8 29.7
2014-Aug-19 01:54 040 6 gusting 8 29.2
2014-Aug-19 01:48 040 6 gusting 7 29.0
2014-Aug-19 00:54 040 9 gusting 12 30.1
2014-Aug-19 00:48 030 9 gusting 11 30.1
2014-Aug-19 00:42 080 7 gusting 10 31.0
2014-Aug-19 00:36 110 6 gusting 10 31.1
2014-Aug-19 00:30 120 6 gusting 8 31.0
2014-Aug-19 00:24 110 8 gusting 10 31.1
2014-Aug-19 00:18 110 7 gusting 10 30.9
2014-Aug-19 00:12 120 8 gusting 11 30.9
2014-Aug-19 00:06 130 9 gusting 11 31.0
2014-Aug-19 00:00 130 8 gusting 11 30.9